Time;durP1;ratioP1;P1;durP2;ratioP2;P2;SDS_P1;SDS_P2;PMS_P1;PMS_P2;Temp;Humidity;BMP_temperature;BMP_pressure;BME280_temperature;BME280_humidity;BME280_pressure;Samples;Min_cycle;Max_cycle;Signal;HPM_P1;HPM_P2
2022/08/19 00:01:48;;;;;;;10.07;5.30;;;15.90;99.90;;;;;;4955503;28;20043;-59
2022/08/19 00:04:15;;;;;;;8.13;5.40;;;15.90;99.90;;;;;;4958072;29;20142;-60
2022/08/19 00:06:44;;;;;;;7.60;5.20;;;16.50;99.90;;;;;;4940923;29;20051;-59
2022/08/19 00:09:12;;;;;;;10.15;5.40;;;16.50;99.90;;;;;;4957939;29;20525;-60
2022/08/19 00:11:40;;;;;;;6.65;4.85;;;16.40;99.90;;;;;;4958254;29;20043;-62
2022/08/19 00:14:09;;;;;;;10.13;5.45;;;16.40;99.90;;;;;;4958105;29;20058;-59
2022/08/19 00:16:39;;;;;;;5.90;5.20;;;17.60;99.90;;;;;;4957942;29;20054;-60
2022/08/19 00:19:05;;;;;;;8.55;5.25;;;16.40;99.90;;;;;;4957976;29;20046;-60
2022/08/19 00:21:39;;;;;;;8.75;5.43;;;16.40;99.90;;;;;;4969510;28;20154;-60
2022/08/19 00:24:07;;;;;;;9.60;4.72;;;16.50;99.90;;;;;;4977266;28;20054;-60
2022/08/19 00:26:35;;;;;;;8.15;4.65;;;16.30;99.90;;;;;;4977217;28;20100;-59
2022/08/19 00:29:01;;;;;;;9.60;4.90;;;16.40;99.90;;;;;;4959774;28;20487;-59
2022/08/19 00:31:31;;;;;;;11.43;7.65;;;16.30;99.90;;;;;;4976858;28;20088;-59
2022/08/19 00:33:57;;;;;;;14.35;8.38;;;16.30;99.90;;;;;;4976053;28;20051;-59
2022/08/19 00:36:22;;;;;;;11.30;7.10;;;16.40;99.90;;;;;;4977075;28;20501;-59
2022/08/19 00:38:52;;;;;;;11.60;8.95;;;16.50;99.90;;;;;;4977001;28;20085;-59
2022/08/19 00:41:22;;;;;;;12.77;8.95;;;16.40;99.90;;;;;;4976808;28;20043;-59
2022/08/19 00:44:05;;;;;;;12.95;7.95;;;16.40;99.90;;;;;;4976738;28;20043;-59
2022/08/19 00:46:36;;;;;;;13.38;8.70;;;16.40;99.90;;;;;;4976526;28;20086;-59
2022/08/19 00:49:10;;;;;;;16.75;8.93;;;16.70;99.90;;;;;;4976851;28;20035;-59
2022/08/19 00:51:36;;;;;;;13.70;8.90;;;16.30;99.90;;;;;;4959560;28;20399;-59
2022/08/19 00:54:03;;;;;;;12.60;9.07;;;16.40;99.90;;;;;;4976650;28;20027;-59
2022/08/19 00:56:30;;;;;;;13.90;10.32;;;16.40;99.90;;;;;;4976557;28;20034;-59
2022/08/19 00:59:01;;;;;;;12.70;9.98;;;16.50;99.90;;;;;;4976401;28;20189;-59
2022/08/19 01:01:29;;;;;;;15.48;10.82;;;16.80;99.90;;;;;;4976442;28;20043;-59
2022/08/19 01:03:55;;;;;;;18.05;10.88;;;16.40;99.90;;;;;;4976517;28;20035;-59
2022/08/19 01:06:21;;;;;;;15.50;11.25;;;16.40;99.90;;;;;;4976410;28;20403;-60
2022/08/19 01:08:49;;;;;;;17.30;11.38;;;16.40;99.90;;;;;;4976347;28;20042;-59
2022/08/19 01:11:16;;;;;;;13.88;11.38;;;16.40;99.90;;;;;;4976266;28;20058;-60
2022/08/19 01:13:43;;;;;;;17.58;12.27;;;16.80;99.90;;;;;;4974561;28;20411;-59
2022/08/19 01:16:11;;;;;;;15.77;10.95;;;16.40;99.90;;;;;;4976266;28;20047;-59
2022/08/19 01:18:41;;;;;;;18.23;12.32;;;16.20;99.90;;;;;;4976100;28;20047;-59
2022/08/19 01:21:18;;;;;;;15.13;11.13;;;16.40;99.90;;;;;;4955652;29;20114;-59
2022/08/19 01:23:45;;;;;;;15.95;11.55;;;16.40;99.90;;;;;;4956711;28;20043;-59
2022/08/19 01:26:20;;;;;;;14.63;11.25;;;16.40;99.90;;;;;;4956513;29;20048;-59
2022/08/19 01:28:47;;;;;;;;;;;16.40;99.90;;;;;;4954885;29;20050;-61
2022/08/19 01:31:18;;;;;;;17.35;11.38;;;16.70;99.90;;;;;;4956737;28;19922;-59
2022/08/19 01:33:48;;;;;;;14.60;10.90;;;16.30;99.90;;;;;;4956390;28;20043;-59
2022/08/19 01:36:25;;;;;;;15.23;10.27;;;16.30;99.90;;;;;;4971812;28;20122;-60
2022/08/19 01:38:52;;;;;;;13.43;10.15;;;16.10;99.90;;;;;;4955284;29;20035;-59
2022/08/19 01:41:18;;;;;;;15.57;10.70;;;16.30;99.90;;;;;;4956712;28;20403;-59
2022/08/19 01:43:46;;;;;;;15.43;9.60;;;16.20;99.90;;;;;;4956549;29;20043;-59
2022/08/19 01:46:11;;;;;;;12.25;9.05;;;16.20;99.90;;;;;;4956378;29;20047;-59
2022/08/19 01:48:42;;;;;;;14.25;9.90;;;16.20;99.90;;;;;;4956267;29;20067;-59
2022/08/19 01:51:13;;;;;;;15.90;10.25;;;16.20;99.90;;;;;;4955017;29;20494;-59
2022/08/19 01:53:42;;;;;;;13.65;10.70;;;16.10;99.90;;;;;;4956287;28;20480;-59
2022/08/19 01:56:10;;;;;;;16.80;10.25;;;16.00;99.90;;;;;;4956092;28;20054;-59
2022/08/19 01:58:41;;;;;;;13.98;10.60;;;16.10;99.90;;;;;;4955146;29;20054;-59
2022/08/19 02:01:08;;;;;;;14.40;10.82;;;15.90;99.90;;;;;;4956149;28;20066;-59
2022/08/19 02:03:34;;;;;;;15.93;11.40;;;16.00;99.90;;;;;;4955929;28;20047;-59
2022/08/19 02:06:02;;;;;;;18.23;12.18;;;16.00;99.90;;;;;;4956171;28;20046;-59
2022/08/19 02:08:30;;;;;;;17.42;11.82;;;15.90;99.90;;;;;;4955685;28;20126;-59
2022/08/19 02:10:56;;;;;;;16.05;11.38;;;15.90;99.90;;;;;;4956000;29;20046;-59
2022/08/19 02:13:26;;;;;;;15.88;12.20;;;15.90;99.90;;;;;;4956029;28;20051;-59
2022/08/19 02:15:55;;;;;;;13.38;11.15;;;16.20;99.90;;;;;;4955878;29;20555;-59
2022/08/19 02:18:21;;;;;;;16.70;11.40;;;16.50;99.90;;;;;;4955709;28;20035;-59
2022/08/19 02:20:47;;;;;;;17.42;12.02;;;15.90;99.90;;;;;;4961392;28;20062;-59
2022/08/19 02:23:16;;;;;;;15.43;10.85;;;15.90;99.90;;;;;;4975097;28;20052;-59
2022/08/19 02:25:44;;;;;;;16.00;10.80;;;15.90;99.90;;;;;;4974294;28;20043;-59
2022/08/19 02:28:11;;;;;;;13.55;10.38;;;15.80;99.90;;;;;;4974923;28;20368;-59
2022/08/19 02:30:41;;;;;;;12.55;9.77;;;15.80;99.90;;;;;;4974791;28;20038;-59
2022/08/19 02:33:07;;;;;;;12.93;10.48;;;15.80;99.90;;;;;;4975038;28;20030;-59
2022/08/19 02:35:33;;;;;;;13.63;10.70;;;15.70;99.90;;;;;;4974719;28;20125;-59
2022/08/19 02:40:51;;;;;;;15.80;10.43;;;15.70;99.90;;;;;;4974660;28;20517;-59
2022/08/19 02:43:22;;;;;;;16.60;10.43;;;15.10;99.90;;;;;;4974635;28;20085;-59
2022/08/19 02:45:48;;;;;;;11.93;9.75;;;16.30;99.90;;;;;;4974854;28;20047;-59
2022/08/19 02:48:19;;;;;;;14.73;10.10;;;15.60;99.90;;;;;;4974498;28;20505;-59
2022/08/19 02:50:46;;;;;;;14.45;10.20;;;15.60;99.90;;;;;;4974574;28;20034;-58
2022/08/19 02:53:12;;;;;;;15.10;10.90;;;15.60;99.90;;;;;;4974530;28;20062;-59
2022/08/19 02:55:50;;;;;;;15.05;11.02;;;15.40;99.90;;;;;;4974349;28;20042;-59
2022/08/19 02:58:18;;;;;;;14.25;10.25;;;15.60;99.90;;;;;;4941582;28;20043;-59
2022/08/19 03:00:50;;;;;;;14.45;10.00;;;15.40;99.90;;;;;;4966166;28;20051;-59
2022/08/19 03:03:19;;;;;;;;;;;15.40;99.90;;;;;;4974975;28;20122;-59
2022/08/19 03:05:45;;;;;;;;;;;15.40;99.90;;;;;;4974857;28;20004;-59
2022/08/19 03:08:12;;;;;;;11.45;9.10;;;15.20;99.90;;;;;;4974342;28;20317;-59
2022/08/19 03:10:44;;;;;;;13.30;9.77;;;15.30;99.90;;;;;;4957079;28;20110;-59
2022/08/19 03:13:12;;;;;;;13.23;10.23;;;16.00;99.90;;;;;;4974269;28;20043;-59
2022/08/19 03:15:47;;;;;;;14.55;9.90;;;15.20;99.90;;;;;;4974383;28;20066;-59
2022/08/19 03:18:13;;;;;;;12.25;9.90;;;15.30;99.90;;;;;;4974301;28;20150;-59
2022/08/19 03:20:49;;;;;;;15.68;11.02;;;15.20;99.90;;;;;;4973894;28;20087;-59
2022/08/19 03:23:16;;;;;;;13.73;10.13;;;14.30;99.90;;;;;;4974464;28;20043;-59
2022/08/19 03:25:47;;;;;;;12.15;9.77;;;15.10;99.90;;;;;;4974345;28;20039;-59
2022/08/19 03:28:14;;;;;;;17.13;10.05;;;15.10;99.90;;;;;;4974201;28;20043;-59
2022/08/19 03:30:43;;;;;;;15.68;9.50;;;14.20;99.90;;;;;;4974176;28;20050;-59
2022/08/19 03:33:11;;;;;;;15.98;9.70;;;15.10;99.90;;;;;;4941061;28;20391;-59
2022/08/19 03:35:39;;;;;;;14.85;9.30;;;14.80;99.90;;;;;;4974887;28;20186;-59
2022/08/19 03:38:07;;;;;;;12.10;8.75;;;15.10;99.90;;;;;;4977997;28;20046;-58
2022/08/19 03:40:37;;;;;;;14.48;8.02;;;15.20;99.90;;;;;;4978162;28;20411;-59
2022/08/19 03:43:05;;;;;;;9.90;7.47;;;14.90;99.90;;;;;;4976862;28;20047;-59
2022/08/19 03:45:30;;;;;;;14.13;8.82;;;14.70;99.90;;;;;;4977756;28;20118;-59
2022/08/19 03:47:58;;;;;;;17.58;10.68;;;14.70;99.90;;;;;;4977723;28;20471;-58
2022/08/19 03:50:25;;;;;;;16.00;10.30;;;14.10;99.90;;;;;;4977492;28;20043;-58
2022/08/19 03:52:51;;;;;;;16.40;10.48;;;14.80;99.90;;;;;;4977839;28;20038;-59
2022/08/19 03:55:20;;;;;;;16.75;10.25;;;14.70;99.90;;;;;;4977316;28;20047;-59
2022/08/19 03:57:48;;;;;;;19.10;11.07;;;;;;;;;;4977522;28;20051;-59
2022/08/19 04:00:15;;;;;;;13.60;9.35;;;14.80;99.90;;;;;;4977621;28;20090;-59
2022/08/19 04:02:43;;;;;;;14.45;9.40;;;14.80;99.90;;;;;;4977500;28;20115;-59
2022/08/19 04:05:13;;;;;;;14.25;9.05;;;14.60;99.90;;;;;;4977616;28;20179;-58
2022/08/19 04:07:43;;;;;;;13.52;9.27;;;;;;;;;;4977533;28;20491;-59
2022/08/19 04:10:10;;;;;;;12.25;8.27;;;14.30;99.90;;;;;;4977645;28;20395;-58
2022/08/19 04:12:42;;;;;;;11.20;8.15;;;14.90;99.90;;;;;;4977338;28;20046;-62
2022/08/19 04:15:10;;;;;;;17.92;10.35;;;14.70;99.90;;;;;;4977495;28;20078;-62
2022/08/19 04:17:36;;;;;;;14.48;9.55;;;14.80;99.90;;;;;;4960249;28;20458;-62
2022/08/19 04:20:05;;;;;;;16.08;10.10;;;;;;;;;;4959516;28;20093;-62
2022/08/19 04:22:30;;;;;;;17.83;10.38;;;14.50;99.90;;;;;;4977109;28;20055;-62
2022/08/19 04:24:56;;;;;;;17.50;11.80;;;13.70;99.90;;;;;;4977097;28;20388;-62
2022/08/19 04:27:21;;;;;;;16.77;10.82;;;14.70;99.90;;;;;;4977008;28;20038;-62
2022/08/19 04:29:48;;;;;;;15.77;11.07;;;14.60;99.90;;;;;;4959725;28;20097;-62
2022/08/19 04:32:18;;;;;;;15.93;11.40;;;;;;;;;;4977118;28;20043;-59
2022/08/19 04:34:44;;;;;;;18.38;11.82;;;;;;;;;;4977134;28;20051;-59
2022/08/19 04:37:12;;;;;;;16.50;11.93;;;14.70;99.90;;;;;;4976966;28;20078;-60
2022/08/19 04:42:38;;;;;;;14.88;10.80;;;14.80;99.90;;;;;;4977148;28;20046;-58
2022/08/19 04:45:12;;;;;;;15.38;10.57;;;14.90;99.90;;;;;;4976836;28;20407;-58
2022/08/19 04:47:42;;;;;;;16.58;10.13;;;14.90;99.90;;;;;;4972569;28;20070;-58
2022/08/19 04:50:11;;;;;;;16.77;11.50;;;14.70;99.90;;;;;;4976559;28;20043;-58
2022/08/19 04:52:43;;;;;;;17.25;12.73;;;14.80;99.90;;;;;;4976774;28;20053;-58
2022/08/19 04:55:13;;;;;;;17.85;11.93;;;14.60;99.90;;;;;;4976799;28;20038;-58
2022/08/19 04:57:39;;;;;;;17.88;10.95;;;15.10;99.90;;;;;;4976660;28;20050;-58
2022/08/19 05:00:09;;;;;;;16.83;11.77;;;14.50;99.90;;;;;;4959913;28;20093;-58
2022/08/19 05:02:38;;;;;;;15.15;10.70;;;14.40;99.90;;;;;;4976378;28;20078;-58
2022/08/19 05:05:06;;;;;;;16.15;11.10;;;14.70;99.90;;;;;;4958920;28;20157;-58
2022/08/19 05:07:33;;;;;;;16.13;11.80;;;14.80;99.90;;;;;;4976524;28;20042;-58
2022/08/19 05:10:01;;;;;;;16.38;11.88;;;14.90;99.90;;;;;;4976181;28;20035;-58
2022/08/19 05:12:28;;;;;;;17.92;11.15;;;15.10;99.90;;;;;;4976310;28;20039;-58
2022/08/19 05:14:56;;;;;;;17.48;13.23;;;15.30;99.90;;;;;;4943015;28;20039;-61
2022/08/19 05:17:22;;;;;;;18.90;12.75;;;15.00;99.90;;;;;;4976023;28;20423;-62
2022/08/19 05:22:34;;;;;;;18.77;14.13;;;14.20;99.90;;;;;;4975918;28;20090;-61
2022/08/19 05:25:03;;;;;;;17.75;13.13;;;15.10;99.90;;;;;;4958575;28;20043;-61
2022/08/19 05:27:29;;;;;;;18.33;13.32;;;15.00;99.90;;;;;;4975908;28;20046;-62
2022/08/19 05:29:55;;;;;;;19.83;13.38;;;15.30;99.90;;;;;;4975887;28;20078;-61
2022/08/19 05:32:23;;;;;;;18.13;13.65;;;15.80;99.90;;;;;;4976070;28;20077;-62
2022/08/19 05:34:49;;;;;;;15.82;12.57;;;16.70;99.90;;;;;;4975745;28;20082;-62
2022/08/19 05:37:17;;;;;;;19.00;12.63;;;16.00;99.90;;;;;;4974942;28;20134;-62
2022/08/19 05:39:44;;;;;;;13.65;11.55;;;16.60;99.90;;;;;;4975741;28;20054;-62
2022/08/19 05:42:11;;;;;;;17.02;11.73;;;17.00;99.90;;;;;;4976156;28;20363;-63
2022/08/19 05:44:43;;;;;;;12.85;9.20;;;17.30;99.90;;;;;;4974840;28;20145;-62
2022/08/19 05:47:11;;;;;;;9.45;7.03;;;18.40;99.90;;;;;;4975791;28;20046;-63
2022/08/19 05:49:37;;;;;;;6.60;5.90;;;18.40;99.90;;;;;;4975670;28;20074;-63
2022/08/19 05:52:06;;;;;;;8.65;6.53;;;19.70;99.90;;;;;;4958189;28;20491;-63
2022/08/19 05:54:33;;;;;;;8.50;6.85;;;19.70;99.90;;;;;;4975457;28;20042;-63
2022/08/19 05:57:04;;;;;;;10.05;7.60;;;20.90;99.90;;;;;;4975329;28;20047;-63
2022/08/19 05:59:30;;;;;;;9.10;7.90;;;21.00;99.90;;;;;;4958299;28;20035;-63
2022/08/19 06:01:56;;;;;;;8.35;7.45;;;21.80;99.90;;;;;;4975546;28;20043;-63
2022/08/19 06:04:25;;;;;;;8.40;7.25;;;22.60;99.90;;;;;;4957819;28;20061;-63
2022/08/19 06:06:53;;;;;;;10.90;9.25;;;23.30;99.90;;;;;;4974374;28;20046;-63
2022/08/19 06:09:21;;;;;;;11.32;9.05;;;24.50;99.90;;;;;;4975154;28;20117;-62
2022/08/19 06:11:58;;;;;;;11.18;8.93;;;24.70;99.90;;;;;;4958496;28;20046;-61
2022/08/19 06:14:29;;;;;;;11.73;9.38;;;25.40;99.90;;;;;;4957778;28;20069;-58
2022/08/19 06:16:59;;;;;;;9.80;8.77;;;26.30;99.90;;;;;;4975214;28;20090;-57
2022/08/19 06:19:26;;;;;;;10.70;8.98;;;27.00;99.90;;;;;;4975037;28;20049;-57
2022/08/19 06:21:53;;;;;;;10.30;8.95;;;27.70;99.00;;;;;;4974704;28;20137;-58
2022/08/19 06:24:25;;;;;;;12.68;8.98;;;28.40;96.70;;;;;;4975048;28;20047;-58
2022/08/19 06:26:53;;;;;;;11.73;9.40;;;29.00;94.20;;;;;;4974905;28;20098;-58
2022/08/19 06:29:22;;;;;;;12.82;10.00;;;29.60;92.10;;;;;;4974990;28;20043;-58
2022/08/19 06:31:51;;;;;;;10.50;9.25;;;30.10;89.60;;;;;;4974818;28;20035;-59
2022/08/19 06:34:17;;;;;;;14.38;9.75;;;30.60;84.90;;;;;;4974730;28;20125;-59
2022/08/19 06:36:49;;;;;;;12.32;9.15;;;30.80;87.50;;;;;;4974206;28;20459;-59
2022/08/19 06:39:19;;;;;;;11.35;9.18;;;31.20;78.80;;;;;;4974825;28;20109;-59
2022/08/19 06:41:48;;;;;;;10.73;9.07;;;31.40;77.10;;;;;;4974794;28;20577;-59
2022/08/19 06:44:15;;;;;;;13.48;9.15;;;31.70;74.70;;;;;;4957180;28;20051;-59
2022/08/19 06:46:41;;;;;;;13.43;9.02;;;31.90;72.80;;;;;;4974593;28;20102;-59
2022/08/19 06:49:09;;;;;;;10.13;8.68;;;32.00;71.80;;;;;;4963596;28;20032;-64
2022/08/19 06:51:36;;;;;;;9.57;7.85;;;32.30;70.30;;;;;;4951417;29;20035;-63
2022/08/19 06:54:02;;;;;;;11.82;8.25;;;33.20;74.00;;;;;;4954219;28;20046;-63
2022/08/19 06:56:33;;;;;;;10.75;8.55;;;32.90;67.50;;;;;;4954223;28;20039;-63
2022/08/19 06:59:06;;;;;;;13.50;8.73;;;33.30;66.10;;;;;;4954157;28;20101;-63
2022/08/19 07:01:37;;;;;;;14.52;8.82;;;33.50;65.10;;;;;;4953836;28;20039;-64
2022/08/19 07:04:04;;;;;;;11.38;9.18;;;33.80;64.20;;;;;;4954241;28;20072;-63
2022/08/19 07:06:30;;;;;;;9.45;8.07;;;34.00;63.70;;;;;;4953921;29;20071;-64
2022/08/19 07:08:58;;;;;;;12.88;9.77;;;34.00;62.80;;;;;;4954043;29;20122;-63
2022/08/19 07:11:23;;;;;;;12.05;8.95;;;34.10;61.50;;;;;;4949420;28;20031;-64
2022/08/19 07:13:49;;;;;;;9.65;8.60;;;34.40;60.60;;;;;;4941071;29;20054;-64
2022/08/19 07:16:19;;;;;;;10.98;8.70;;;34.40;60.10;;;;;;4941221;29;20067;-59
2022/08/19 07:18:49;;;;;;;12.70;8.45;;;34.50;59.30;;;;;;4941143;29;20065;-59
2022/08/19 07:21:19;;;;;;;13.65;8.90;;;34.40;59.00;;;;;;4948405;29;20058;-58
2022/08/19 07:23:46;;;;;;;12.63;8.45;;;34.50;58.50;;;;;;4960278;28;20443;-58
2022/08/19 07:26:11;;;;;;;11.35;8.68;;;35.00;65.40;;;;;;4960340;28;20050;-58
2022/08/19 07:28:38;;;;;;;11.00;8.13;;;34.30;58.40;;;;;;4959899;29;20073;-59
2022/08/19 07:31:06;;;;;;;12.07;8.63;;;34.10;58.80;;;;;;4943116;29;20051;-58
2022/08/19 07:33:36;;;;;;;10.35;8.40;;;33.60;59.60;;;;;;4960299;29;20391;-59
2022/08/19 07:36:06;;;;;;;11.32;8.75;;;33.30;60.30;;;;;;4955458;28;20059;-58
2022/08/19 07:38:32;;;;;;;11.00;8.63;;;32.10;70.20;;;;;;4962226;28;20558;-63
2022/08/19 07:40:58;;;;;;;13.45;8.93;;;32.60;61.70;;;;;;4979536;28;20490;-63
2022/08/19 07:43:26;;;;;;;16.33;8.40;;;31.80;70.90;;;;;;4979608;28;20049;-64
2022/08/19 07:45:55;;;;;;;10.10;8.80;;;32.10;63.70;;;;;;4979647;28;20058;-63
2022/08/19 07:48:28;;;;;;;10.35;8.65;;;32.30;64.20;;;;;;4979253;28;20047;-64
2022/08/19 07:50:56;;;;;;;15.13;9.13;;;32.50;63.90;;;;;;4979227;28;20039;-64
2022/08/19 07:53:24;;;;;;;12.02;8.90;;;32.20;72.90;;;;;;4979506;28;20054;-58
2022/08/19 07:55:50;;;;;;;12.50;8.75;;;32.10;65.00;;;;;;4979576;28;20065;-58
2022/08/19 07:58:19;;;;;;;12.50;8.70;;;31.90;66.50;;;;;;4979334;28;20450;-58
2022/08/19 08:00:48;;;;;;;10.35;8.70;;;31.70;67.60;;;;;;4979533;28;20046;-58
2022/08/19 08:03:15;;;;;;;13.98;8.82;;;31.20;77.50;;;;;;4979544;28;20347;-58
2022/08/19 08:11:01;;;;;;;9.77;7.65;;;30.40;81.10;;;;;;4979704;28;20347;-58
2022/08/19 08:13:28;;;;;;;10.75;7.40;;;30.40;74.10;;;;;;4962190;28;20043;-58
2022/08/19 08:15:56;;;;;;;10.68;7.00;;;29.90;81.30;;;;;;4978943;28;20046;-57
2022/08/19 08:18:24;;;;;;;10.18;7.22;;;30.40;75.00;;;;;;4979150;28;20451;-58
2022/08/19 08:20:50;;;;;;;12.60;7.18;;;30.60;75.70;;;;;;4978585;28;20058;-63
2022/08/19 08:23:25;;;;;;;10.02;7.68;;;30.80;74.40;;;;;;4975885;28;20074;-63
2022/08/19 08:25:56;;;;;;;10.18;7.93;;;30.70;73.90;;;;;;4976014;28;20132;-63
2022/08/19 08:28:23;;;;;;;10.77;8.15;;;30.70;74.10;;;;;;4975956;28;20054;-64
2022/08/19 08:30:50;;;;;;;12.80;7.80;;;30.70;81.80;;;;;;4974903;28;20042;-63
2022/08/19 08:33:24;;;;;;;10.20;8.45;;;30.80;74.10;;;;;;4975283;28;20042;-64
2022/08/19 08:35:49;;;;;;;11.02;8.60;;;30.80;73.60;;;;;;4975696;28;20065;-64
2022/08/19 08:38:17;;;;;;;15.23;9.15;;;30.70;74.50;;;;;;4975547;28;20045;-64
2022/08/19 08:41:02;;;;;;;12.95;9.18;;;30.70;75.50;;;;;;4976735;28;20070;-64
2022/08/19 08:43:42;;;;;;;14.95;10.18;;;30.70;75.00;;;;;;4976721;28;20047;-63
2022/08/19 08:46:31;;;;;;;13.38;10.48;;;30.70;74.70;;;;;;4976162;28;20043;-64
2022/08/19 08:49:11;;;;;;;15.40;10.57;;;30.70;74.10;;;;;;4975869;28;20115;-65
2022/08/19 08:51:51;;;;;;;12.88;10.43;;;30.40;82.00;;;;;;4976065;28;20031;-65
2022/08/19 08:54:24;;;;;;;11.90;10.50;;;30.30;76.10;;;;;;4976363;28;20118;-65
2022/08/19 08:56:53;;;;;;;14.23;10.13;;;30.40;75.60;;;;;;4976358;28;20045;-65
2022/08/19 08:59:33;;;;;;;15.18;10.90;;;30.50;75.40;;;;;;4976608;28;20039;-65
2022/08/19 09:02:00;;;;;;;15.93;10.40;;;30.70;75.30;;;;;;4976698;28;20038;-65
2022/08/19 09:04:27;;;;;;;12.13;9.93;;;30.50;79.60;;;;;;4974947;28;20047;-65
2022/08/19 09:07:08;;;;;;;13.40;10.20;;;30.70;73.80;;;;;;4975229;28;20082;-65
2022/08/19 09:09:40;;;;;;;11.98;10.52;;;30.80;73.80;;;;;;4976276;28;20061;-59
2022/08/19 09:12:10;;;;;;;14.80;9.90;;;30.80;74.20;;;;;;4958527;28;20079;-58
2022/08/19 09:15:01;;;;;;;12.70;10.57;;;30.80;73.90;;;;;;4974065;28;20049;-58
2022/08/19 09:17:32;;;;;;;12.00;8.82;;;30.60;73.30;;;;;;4963088;28;20133;-58
2022/08/19 09:20:21;;;;;;;13.55;9.23;;;30.30;73.30;;;;;;4958786;28;20082;-58
2022/08/19 09:22:48;;;;;;;10.80;9.18;;;30.20;73.00;;;;;;4956305;29;20066;-59
2022/08/19 09:25:17;;;;;;;12.88;9.27;;;30.10;74.10;;;;;;4956885;28;20118;-59
2022/08/19 09:27:43;;;;;;;10.07;8.32;;;30.10;74.80;;;;;;4971358;28;20050;-59
2022/08/19 09:30:23;;;;;;;11.65;7.50;;;29.10;76.50;;;;;;4956845;28;20070;-59
2022/08/19 09:32:52;;;;;;;11.35;8.07;;;30.10;73.90;;;;;;4971780;28;20062;-59
2022/08/19 09:35:23;;;;;;;14.20;9.20;;;30.10;73.80;;;;;;4956136;28;20533;-61
2022/08/19 09:37:50;;;;;;;13.18;8.63;;;30.10;74.00;;;;;;4955422;29;20046;-60
2022/08/19 09:40:17;;;;;;;10.40;8.02;;;30.00;73.60;;;;;;4956485;28;20043;-66
2022/08/19 09:42:46;;;;;;;11.10;8.30;;;29.90;73.90;;;;;;4956529;28;20043;-66
2022/08/19 09:45:16;;;;;;;11.93;7.05;;;29.90;73.50;;;;;;4971266;28;20051;-58
2022/08/19 09:47:43;;;;;;;11.70;7.55;;;29.80;73.80;;;;;;4956372;28;20035;-58
2022/08/19 09:50:12;;;;;;;10.30;7.57;;;29.80;73.30;;;;;;4956359;28;20090;-58
2022/08/19 09:52:39;;;;;;;9.25;7.43;;;29.80;74.50;;;;;;4956137;28;20114;-59
2022/08/19 09:55:06;;;;;;;12.80;8.98;;;29.90;74.70;;;;;;4956312;28;20106;-58
2022/08/19 09:57:32;;;;;;;8.18;6.97;;;30.00;74.40;;;;;;4970970;28;20403;-58
2022/08/19 09:59:58;;;;;;;10.13;7.40;;;29.90;73.50;;;;;;4956083;29;20047;-59
2022/08/19 10:02:24;;;;;;;11.95;9.15;;;29.80;73.20;;;;;;4956006;28;20042;-60
2022/08/19 10:07:43;;;;;;;11.73;8.10;;;29.70;74.10;;;;;;4915738;29;20432;-59
2022/08/19 10:10:10;;;;;;;11.50;9.73;;;29.80;74.30;;;;;;4915643;29;20048;-60
2022/08/19 10:12:36;;;;;;;10.35;8.95;;;30.00;79.40;;;;;;4915683;29;20052;-60
2022/08/19 10:15:05;;;;;;;14.35;8.38;;;29.80;74.10;;;;;;4915445;29;20090;-59
2022/08/19 10:17:34;;;;;;;11.50;7.82;;;29.90;74.00;;;;;;4883760;29;20123;-59
2022/08/19 10:20:04;;;;;;;13.48;9.40;;;29.80;73.20;;;;;;4899934;29;20060;-60
2022/08/19 10:22:30;;;;;;;13.55;9.65;;;29.80;73.70;;;;;;4915313;29;20099;-59
2022/08/19 10:24:56;;;;;;;14.57;10.65;;;29.90;73.40;;;;;;4915428;29;20052;-59
2022/08/19 10:27:25;;;;;;;12.20;7.13;;;29.80;73.50;;;;;;4915363;29;20079;-60
2022/08/19 10:29:52;;;;;;;10.93;8.95;;;29.80;72.80;;;;;;4910491;29;20062;-59
2022/08/19 10:32:21;;;;;;;10.30;8.38;;;29.80;73.30;;;;;;4895465;29;20052;-60
2022/08/19 10:34:48;;;;;;;12.23;9.27;;;29.90;74.00;;;;;;4908651;29;20511;-60
2022/08/19 10:37:16;;;;;;;13.65;8.35;;;29.90;74.00;;;;;;4890698;29;20074;-59
2022/08/19 10:39:42;;;;;;;12.27;9.10;;;29.80;73.90;;;;;;4886756;29;20043;-60
2022/08/19 10:42:10;;;;;;;10.90;7.53;;;29.80;73.30;;;;;;4906014;29;20040;-60
2022/08/19 10:44:36;;;;;;;11.95;8.15;;;29.80;72.40;;;;;;4927876;28;20140;-60
2022/08/19 10:47:03;;;;;;;8.57;6.93;;;29.60;72.50;;;;;;4952234;29;20054;-60
2022/08/19 10:49:30;;;;;;;9.30;6.72;;;29.50;72.50;;;;;;4954630;29;20062;-60
2022/08/19 10:57:29;;;;;;;;;;;29.40;72.80;;;;;;4935828;29;20055;-59
2022/08/19 10:59:55;;;;;;;12.50;9.50;;;29.40;78.40;;;;;;4918032;29;20264;-59
2022/08/19 11:02:22;;;;;;;11.30;8.90;;;29.40;73.30;;;;;;4935048;29;20082;-59
2022/08/19 11:04:49;;;;;;;11.63;8.77;;;29.40;73.60;;;;;;4935138;29;20122;-59
2022/08/19 11:07:15;;;;;;;12.13;8.77;;;29.40;73.20;;;;;;4945486;29;20035;-58
2022/08/19 11:09:42;;;;;;;12.93;9.50;;;29.30;72.90;;;;;;4954042;29;20373;-59
2022/08/19 11:12:09;;;;;;;10.48;7.93;;;29.30;73.10;;;;;;4936749;29;20043;-59
2022/08/19 11:14:36;;;;;;;10.63;8.57;;;29.30;73.30;;;;;;4954344;29;20039;-59
2022/08/19 11:17:04;;;;;;;10.77;8.73;;;29.10;76.80;;;;;;4954927;29;20538;-57
2022/08/19 11:19:30;;;;;;;10.38;8.43;;;29.10;73.00;;;;;;4954865;29;20043;-57
2022/08/19 11:21:56;;;;;;;11.65;7.20;;;29.00;73.10;;;;;;4967223;28;20059;-57
2022/08/19 11:24:24;;;;;;;11.32;6.93;;;29.00;72.70;;;;;;4974341;28;20045;-58
2022/08/19 11:26:52;;;;;;;7.55;6.40;;;28.90;71.70;;;;;;4974354;28;20038;-57
2022/08/19 11:29:20;;;;;;;9.48;7.70;;;28.70;71.50;;;;;;4974271;28;20042;-57
2022/08/19 11:31:49;;;;;;;10.38;8.00;;;28.70;72.10;;;;;;4974211;28;20043;-58
2022/08/19 11:34:19;;;;;;;10.15;7.57;;;28.70;72.60;;;;;;4974064;28;20451;-58
2022/08/19 11:36:47;;;;;;;9.63;8.10;;;28.80;73.30;;;;;;4974441;28;20062;-58
2022/08/19 11:39:15;;;;;;;10.05;8.38;;;28.80;72.40;;;;;;4974141;28;20098;-58
2022/08/19 11:41:41;;;;;;;12.90;9.13;;;28.80;72.10;;;;;;4974156;28;20114;-57
2022/08/19 11:44:07;;;;;;;9.73;7.57;;;28.90;72.40;;;;;;4974381;28;20427;-57
2022/08/19 11:46:35;;;;;;;14.48;8.98;;;29.00;72.80;;;;;;4973894;28;20042;-59
2022/08/19 11:49:03;;;;;;;8.75;7.60;;;29.10;72.10;;;;;;4974117;28;20102;-58
2022/08/19 11:51:29;;;;;;;7.90;7.10;;;29.10;72.10;;;;;;4974066;28;20085;-58
2022/08/19 11:53:57;;;;;;;10.75;7.07;;;29.00;71.50;;;;;;4973894;28;20043;-59
2022/08/19 11:56:24;;;;;;;9.18;6.60;;;28.80;72.10;;;;;;4973913;28;20054;-58
2022/08/19 11:58:51;;;;;;;8.88;6.88;;;28.70;72.10;;;;;;4977617;28;20375;-62
2022/08/19 12:01:19;;;;;;;8.80;6.63;;;28.80;72.00;;;;;;4977649;28;20113;-60
2022/08/19 12:03:47;;;;;;;15.13;7.03;;;29.00;71.90;;;;;;4977263;28;20043;-59
2022/08/19 12:06:16;;;;;;;10.07;6.65;;;29.10;71.50;;;;;;4977390;28;20051;-57
2022/08/19 12:08:43;;;;;;;8.75;7.63;;;29.20;71.30;;;;;;4976943;28;20406;-58
2022/08/19 12:11:09;;;;;;;11.30;7.15;;;29.00;71.60;;;;;;4976718;28;20109;-58
2022/08/19 12:13:36;;;;;;;8.93;6.90;;;29.10;72.40;;;;;;4976791;28;20042;-58
2022/08/19 12:16:12;;;;;;;10.25;7.80;;;29.20;71.90;;;;;;4977206;28;20047;-58
2022/08/19 12:18:38;;;;;;;8.13;6.40;;;29.10;70.80;;;;;;4976651;28;20066;-58
2022/08/19 12:21:04;;;;;;;10.18;7.47;;;29.00;71.90;;;;;;4972203;28;20063;-58
2022/08/19 12:23:30;;;;;;;11.00;7.00;;;28.90;71.50;;;;;;4957771;29;20145;-58
2022/08/19 12:25:56;;;;;;;8.32;6.90;;;28.90;71.70;;;;;;4957645;28;20543;-58
2022/08/19 12:28:24;;;;;;;10.80;7.60;;;28.80;71.40;;;;;;4957784;29;20122;-58
2022/08/19 12:30:51;;;;;;;8.02;6.45;;;28.70;71.80;;;;;;4957548;29;20035;-58
2022/08/19 12:33:19;;;;;;;11.38;7.72;;;28.60;72.00;;;;;;4957985;29;20047;-60
2022/08/19 12:35:46;;;;;;;10.13;7.20;;;28.70;72.90;;;;;;4957717;29;20045;-58
2022/08/19 12:38:14;;;;;;;11.93;6.70;;;28.90;72.60;;;;;;4957723;29;20047;-59
2022/08/19 12:40:40;;;;;;;8.68;6.32;;;29.10;71.40;;;;;;4957578;29;20047;-58
2022/08/19 12:43:11;;;;;;;8.68;5.60;;;29.30;70.90;;;;;;4957476;28;20082;-58
2022/08/19 12:45:37;;;;;;;7.53;5.50;;;29.40;70.00;;;;;;4957659;29;20504;-57
2022/08/19 12:48:04;;;;;;;7.40;5.22;;;29.60;68.70;;;;;;4957561;29;20047;-58
2022/08/19 12:50:30;;;;;;;9.05;5.15;;;29.70;67.20;;;;;;4957641;29;20066;-58
2022/08/19 12:52:57;;;;;;;7.80;5.47;;;29.90;66.80;;;;;;4957293;29;20492;-58
2022/08/19 12:55:24;;;;;;;7.38;5.63;;;30.10;66.10;;;;;;4957773;28;20039;-57
2022/08/19 12:57:50;;;;;;;8.52;5.85;;;30.20;65.70;;;;;;4957150;29;20047;-57
2022/08/19 13:00:20;;;;;;;12.10;6.60;;;30.20;65.60;;;;;;4957385;28;20424;-57
2022/08/19 13:02:50;;;;;;;6.88;5.50;;;30.30;65.10;;;;;;4956187;29;20083;-57
2022/08/19 13:05:20;;;;;;;9.07;6.35;;;30.30;65.40;;;;;;4971870;28;20126;-59
2022/08/19 13:07:46;;;;;;;9.70;6.38;;;30.10;65.30;;;;;;4957122;28;20510;-58